Accueil
METAR-TAF:

METAR-TAF

Aéroports :

Aéroport de Friedrichshafen

Friedrichshafen, Allemagne

latitude: 47-40N, longitude: 009-31E, altitude: 416 m

Observation

Le bulletin a été fait il y a 25 minutes, à 14:20 UTC
Vent 7 kt de nord/nord-est, variant entre nord et est/nord-est
Température 20°C
Humidité 68%
Pression 1025 hPa
Visibilité 10 km ou plus
Nuages épars à une hauteur de 2700 ft

METAR: EDNY 221420Z 03007KT 360V060 9999 SCT027 20/14 Q1025

Heure: 16:45 (14:45 UTC)

Prévision

Le bulletin a été fait il y a 3 heures et 45 minutes, à 11:00 UTC
Prévision valable du 22 à 12 UTC au 23 à 12 UTC
Vent 7 kt de nord
Visibilité 10 km ou plus
Nuages fragmentés à une hauteur de 2000 ft

TAF: EDNY 221100Z 2212/2312 01007KT 9999 BKN020

Observations et prévisions météorologiques de plus de 4000 aéroports (messages METAR et TAF).

Les stations disponibles sont représentées par des disques jaunes et rouges sur la carte.

Passer la souris dessus pour voir le nom de la station.

Cliquer dessus pour voir les observations et prévisions météorologiques.

Pour changer de carte: cliquez sur les boutons verts avec une croix noire pour zoomer, sur le bouton vert avec un tiret pour effectuer un zoom arrière, ou sur les flèches vertes pour les cartes adjacentes.


METAR-TAF: